sensor_id;sensor_type;location;lat;lon;timestamp;P1;durP1;ratioP1;P2;durP2;ratioP2
64903;SDS011;51401;48.882;12.598;2022-08-01T00:00:26;3.78;;;3.47;;
64903;SDS011;51401;48.882;12.598;2022-08-01T00:02:51;3.78;;;3.47;;
64903;SDS011;51401;48.882;12.598;2022-08-01T00:05:16;3.90;;;3.60;;
64903;SDS011;51401;48.882;12.598;2022-08-01T00:07:42;3.90;;;3.60;;
64903;SDS011;51401;48.882;12.598;2022-08-01T00:10:08;4.90;;;4.32;;
64903;SDS011;51401;48.882;12.598;2022-08-01T00:12:36;3.97;;;3.67;;
64903;SDS011;51401;48.882;12.598;2022-08-01T00:15:03;3.95;;;3.65;;
64903;SDS011;51401;48.882;12.598;2022-08-01T00:17:30;4.80;;;3.83;;
64903;SDS011;51401;48.882;12.598;2022-08-01T00:19:55;4.82;;;4.32;;
64903;SDS011;51401;48.882;12.598;2022-08-01T00:22:21;3.90;;;3.60;;
64903;SDS011;51401;48.882;12.598;2022-08-01T00:24:46;4.87;;;4.27;;
64903;SDS011;51401;48.882;12.598;2022-08-01T00:27:11;4.95;;;4.00;;
64903;SDS011;51401;48.882;12.598;2022-08-01T00:29:37;4.53;;;4.13;;
64903;SDS011;51401;48.882;12.598;2022-08-01T00:32:02;4.70;;;4.13;;
64903;SDS011;51401;48.882;12.598;2022-08-01T00:34:27;4.97;;;4.47;;
64903;SDS011;51401;48.882;12.598;2022-08-01T00:36:53;5.38;;;4.40;;
64903;SDS011;51401;48.882;12.598;2022-08-01T00:39:18;4.50;;;4.10;;
64903;SDS011;51401;48.882;12.598;2022-08-01T00:41:43;4.97;;;4.57;;
64903;SDS011;51401;48.882;12.598;2022-08-01T00:44:08;5.00;;;4.57;;
64903;SDS011;51401;48.882;12.598;2022-08-01T00:46:34;5.10;;;4.60;;
64903;SDS011;51401;48.882;12.598;2022-08-01T00:48:59;4.75;;;4.30;;
64903;SDS011;51401;48.882;12.598;2022-08-01T00:51:25;5.57;;;4.97;;
64903;SDS011;51401;48.882;12.598;2022-08-01T00:53:51;6.40;;;4.30;;
64903;SDS011;51401;48.882;12.598;2022-08-01T00:56:18;5.10;;;4.70;;
64903;SDS011;51401;48.882;12.598;2022-08-01T00:58:45;5.30;;;4.80;;
64903;SDS011;51401;48.882;12.598;2022-08-01T01:01:10;5.50;;;5.00;;
64903;SDS011;51401;48.882;12.598;2022-08-01T01:03:35;5.13;;;4.70;;
64903;SDS011;51401;48.882;12.598;2022-08-01T01:09:21;6.38;;;5.25;;
64903;SDS011;51401;48.882;12.598;2022-08-01T01:17:19;6.03;;;5.53;;
64903;SDS011;51401;48.882;12.598;2022-08-01T01:19:52;5.93;;;5.32;;
64903;SDS011;51401;48.882;12.598;2022-08-01T01:22:36;7.35;;;5.57;;
64903;SDS011;51401;48.882;12.598;2022-08-01T01:27:57;5.43;;;5.03;;
64903;SDS011;51401;48.882;12.598;2022-08-01T01:30:33;6.18;;;5.38;;
64903;SDS011;51401;48.882;12.598;2022-08-01T01:33:00;5.80;;;5.30;;
64903;SDS011;51401;48.882;12.598;2022-08-01T01:35:29;5.68;;;5.15;;
64903;SDS011;51401;48.882;12.598;2022-08-01T01:38:17;5.95;;;5.45;;
64903;SDS011;51401;48.882;12.598;2022-08-01T01:40:47;6.15;;;5.20;;
64903;SDS011;51401;48.882;12.598;2022-08-01T01:43:15;5.97;;;5.47;;
64903;SDS011;51401;48.882;12.598;2022-08-01T01:45:43;5.07;;;4.68;;
64903;SDS011;51401;48.882;12.598;2022-08-01T01:48:10;5.78;;;5.28;;
64903;SDS011;51401;48.882;12.598;2022-08-01T01:50:39;5.97;;;5.20;;
64903;SDS011;51401;48.882;12.598;2022-08-01T01:53:06;5.30;;;4.90;;
64903;SDS011;51401;48.882;12.598;2022-08-01T01:55:35;5.05;;;4.65;;
64903;SDS011;51401;48.882;12.598;2022-08-01T01:58:03;5.20;;;4.70;;
64903;SDS011;51401;48.882;12.598;2022-08-01T02:00:31;5.97;;;5.45;;
64903;SDS011;51401;48.882;12.598;2022-08-01T02:02:58;5.55;;;5.05;;
64903;SDS011;51401;48.882;12.598;2022-08-01T02:05:25;6.82;;;5.30;;
64903;SDS011;51401;48.882;12.598;2022-08-01T02:07:52;5.45;;;5.05;;
64903;SDS011;51401;48.882;12.598;2022-08-01T02:10:19;6.20;;;5.40;;
64903;SDS011;51401;48.882;12.598;2022-08-01T02:12:45;6.07;;;5.05;;
64903;SDS011;51401;48.882;12.598;2022-08-01T02:15:14;5.30;;;4.80;;
64903;SDS011;51401;48.882;12.598;2022-08-01T02:17:45;6.07;;;5.50;;
64903;SDS011;51401;48.882;12.598;2022-08-01T02:20:13;6.30;;;5.80;;
64903;SDS011;51401;48.882;12.598;2022-08-01T02:22:44;5.35;;;4.95;;
64903;SDS011;51401;48.882;12.598;2022-08-01T02:25:21;6.07;;;5.57;;
64903;SDS011;51401;48.882;12.598;2022-08-01T02:30:15;6.23;;;5.73;;
64903;SDS011;51401;48.882;12.598;2022-08-01T02:32:42;6.45;;;5.75;;
64903;SDS011;51401;48.882;12.598;2022-08-01T02:35:09;5.68;;;5.07;;
64903;SDS011;51401;48.882;12.598;2022-08-01T02:37:38;6.18;;;5.68;;
64903;SDS011;51401;48.882;12.598;2022-08-01T02:40:05;6.03;;;5.53;;
64903;SDS011;51401;48.882;12.598;2022-08-01T02:42:32;5.80;;;5.30;;
64903;SDS011;51401;48.882;12.598;2022-08-01T02:45:02;5.75;;;5.05;;
64903;SDS011;51401;48.882;12.598;2022-08-01T02:47:29;5.50;;;5.00;;
64903;SDS011;51401;48.882;12.598;2022-08-01T02:49:56;5.93;;;5.28;;
64903;SDS011;51401;48.882;12.598;2022-08-01T02:52:24;5.75;;;5.25;;
64903;SDS011;51401;48.882;12.598;2022-08-01T02:54:51;5.50;;;5.00;;
64903;SDS011;51401;48.882;12.598;2022-08-01T02:57:20;5.55;;;5.05;;
64903;SDS011;51401;48.882;12.598;2022-08-01T02:59:46;5.80;;;5.28;;
64903;SDS011;51401;48.882;12.598;2022-08-01T03:02:14;6.28;;;5.68;;
64903;SDS011;51401;48.882;12.598;2022-08-01T03:04:40;6.25;;;5.65;;
64903;SDS011;51401;48.882;12.598;2022-08-01T03:07:07;6.20;;;5.70;;
64903;SDS011;51401;48.882;12.598;2022-08-01T03:09:36;6.22;;;5.72;;
64903;SDS011;51401;48.882;12.598;2022-08-01T03:12:06;6.50;;;5.90;;
64903;SDS011;51401;48.882;12.598;2022-08-01T03:14:36;5.75;;;5.25;;
64903;SDS011;51401;48.882;12.598;2022-08-01T03:17:04;6.35;;;5.75;;
64903;SDS011;51401;48.882;12.598;2022-08-01T03:19:32;6.25;;;5.65;;
64903;SDS011;51401;48.882;12.598;2022-08-01T03:21:58;6.30;;;5.70;;
64903;SDS011;51401;48.882;12.598;2022-08-01T03:24:28;5.60;;;5.10;;
64903;SDS011;51401;48.882;12.598;2022-08-01T03:26:56;5.65;;;5.15;;
64903;SDS011;51401;48.882;12.598;2022-08-01T03:29:24;6.53;;;5.97;;
64903;SDS011;51401;48.882;12.598;2022-08-01T03:31:50;6.35;;;5.72;;
64903;SDS011;51401;48.882;12.598;2022-08-01T03:34:17;6.30;;;5.70;;
64903;SDS011;51401;48.882;12.598;2022-08-01T03:39:58;6.13;;;5.53;;
64903;SDS011;51401;48.882;12.598;2022-08-01T03:42:33;6.63;;;6.03;;
64903;SDS011;51401;48.882;12.598;2022-08-01T03:45:02;6.90;;;5.63;;
64903;SDS011;51401;48.882;12.598;2022-08-01T03:47:31;5.97;;;5.38;;
64903;SDS011;51401;48.882;12.598;2022-08-01T03:50:01;5.75;;;5.25;;
64903;SDS011;51401;48.882;12.598;2022-08-01T03:52:29;5.28;;;4.88;;
64903;SDS011;51401;48.882;12.598;2022-08-01T03:54:56;5.35;;;4.85;;
64903;SDS011;51401;48.882;12.598;2022-08-01T03:57:24;5.22;;;4.82;;
64903;SDS011;51401;48.882;12.598;2022-08-01T03:59:53;5.10;;;4.65;;
64903;SDS011;51401;48.882;12.598;2022-08-01T04:02:20;5.07;;;4.57;;
64903;SDS011;51401;48.882;12.598;2022-08-01T04:04:47;4.93;;;4.53;;
64903;SDS011;51401;48.882;12.598;2022-08-01T04:09:54;5.70;;;5.20;;
64903;SDS011;51401;48.882;12.598;2022-08-01T04:12:20;5.10;;;4.70;;
64903;SDS011;51401;48.882;12.598;2022-08-01T04:14:46;6.03;;;5.40;;
64903;SDS011;51401;48.882;12.598;2022-08-01T04:17:12;6.32;;;4.97;;
64903;SDS011;51401;48.882;12.598;2022-08-01T04:19:37;5.93;;;4.38;;
64903;SDS011;51401;48.882;12.598;2022-08-01T04:22:03;4.72;;;4.32;;
64903;SDS011;51401;48.882;12.598;2022-08-01T04:24:29;5.68;;;4.38;;
64903;SDS011;51401;48.882;12.598;2022-08-01T04:26:57;4.63;;;4.20;;
64903;SDS011;51401;48.882;12.598;2022-08-01T04:29:24;4.90;;;4.47;;
64903;SDS011;51401;48.882;12.598;2022-08-01T04:31:51;4.30;;;3.90;;
64903;SDS011;51401;48.882;12.598;2022-08-01T04:34:20;4.93;;;4.43;;
64903;SDS011;51401;48.882;12.598;2022-08-01T04:36:47;5.90;;;4.57;;
64903;SDS011;51401;48.882;12.598;2022-08-01T04:39:15;4.97;;;4.43;;
64903;SDS011;51401;48.882;12.598;2022-08-01T04:41:41;4.90;;;4.40;;
64903;SDS011;51401;48.882;12.598;2022-08-01T04:44:07;5.20;;;4.70;;
64903;SDS011;51401;48.882;12.598;2022-08-01T04:46:33;4.72;;;4.28;;
64903;SDS011;51401;48.882;12.598;2022-08-01T04:48:59;5.38;;;4.70;;
64903;SDS011;51401;48.882;12.598;2022-08-01T04:51:26;4.10;;;3.80;;
64903;SDS011;51401;48.882;12.598;2022-08-01T04:53:51;8.05;;;4.70;;
64903;SDS011;51401;48.882;12.598;2022-08-01T04:56:18;4.85;;;4.45;;
64903;SDS011;51401;48.882;12.598;2022-08-01T04:58:45;5.70;;;4.97;;
64903;SDS011;51401;48.882;12.598;2022-08-01T05:01:11;5.70;;;4.40;;
64903;SDS011;51401;48.882;12.598;2022-08-01T05:03:37;4.93;;;4.38;;
64903;SDS011;51401;48.882;12.598;2022-08-01T05:06:02;5.53;;;4.63;;
64903;SDS011;51401;48.882;12.598;2022-08-01T05:08:28;5.05;;;4.53;;
64903;SDS011;51401;48.882;12.598;2022-08-01T05:10:53;4.95;;;4.45;;
64903;SDS011;51401;48.882;12.598;2022-08-01T05:13:19;4.72;;;4.28;;
64903;SDS011;51401;48.882;12.598;2022-08-01T05:15:44;4.60;;;4.20;;
64903;SDS011;51401;48.882;12.598;2022-08-01T05:18:10;4.07;;;3.78;;
64903;SDS011;51401;48.882;12.598;2022-08-01T05:20:36;4.63;;;3.85;;
64903;SDS011;51401;48.882;12.598;2022-08-01T05:23:02;4.25;;;3.85;;
64903;SDS011;51401;48.882;12.598;2022-08-01T05:25:28;4.13;;;3.83;;
64903;SDS011;51401;48.882;12.598;2022-08-01T05:27:53;3.70;;;3.38;;
64903;SDS011;51401;48.882;12.598;2022-08-01T05:30:18;4.90;;;4.40;;
64903;SDS011;51401;48.882;12.598;2022-08-01T05:32:44;4.32;;;4.03;;
64903;SDS011;51401;48.882;12.598;2022-08-01T05:35:09;4.20;;;3.80;;
64903;SDS011;51401;48.882;12.598;2022-08-01T05:37:34;5.13;;;4.07;;
64903;SDS011;51401;48.882;12.598;2022-08-01T05:40:00;5.18;;;4.18;;
64903;SDS011;51401;48.882;12.598;2022-08-01T05:42:25;6.38;;;4.05;;
64903;SDS011;51401;48.882;12.598;2022-08-01T05:44:51;5.13;;;4.15;;
64903;SDS011;51401;48.882;12.598;2022-08-01T05:47:17;7.40;;;3.92;;
64903;SDS011;51401;48.882;12.598;2022-08-01T05:49:43;7.20;;;4.68;;
64903;SDS011;51401;48.882;12.598;2022-08-01T05:52:09;4.38;;;3.85;;
64903;SDS011;51401;48.882;12.598;2022-08-01T05:54:34;4.75;;;4.35;;
64903;SDS011;51401;48.882;12.598;2022-08-01T05:57:00;6.22;;;4.32;;
64903;SDS011;51401;48.882;12.598;2022-08-01T05:59:26;7.13;;;3.92;;
64903;SDS011;51401;48.882;12.598;2022-08-01T06:01:55;3.90;;;3.42;;
64903;SDS011;51401;48.882;12.598;2022-08-01T06:04:21;5.78;;;3.55;;
64903;SDS011;51401;48.882;12.598;2022-08-01T06:06:46;6.63;;;3.65;;
64903;SDS011;51401;48.882;12.598;2022-08-01T06:09:11;10.07;;;5.07;;
64903;SDS011;51401;48.882;12.598;2022-08-01T06:11:37;6.47;;;3.50;;
64903;SDS011;51401;48.882;12.598;2022-08-01T06:14:02;4.00;;;3.35;;
64903;SDS011;51401;48.882;12.598;2022-08-01T06:16:27;4.53;;;3.53;;
64903;SDS011;51401;48.882;12.598;2022-08-01T06:18:53;4.00;;;3.60;;
64903;SDS011;51401;48.882;12.598;2022-08-01T06:21:18;4.43;;;3.80;;
64903;SDS011;51401;48.882;12.598;2022-08-01T06:23:43;4.70;;;3.25;;
64903;SDS011;51401;48.882;12.598;2022-08-01T06:26:09;5.32;;;3.70;;
64903;SDS011;51401;48.882;12.598;2022-08-01T06:28:35;4.07;;;3.58;;
64903;SDS011;51401;48.882;12.598;2022-08-01T06:31:00;4.07;;;3.67;;
64903;SDS011;51401;48.882;12.598;2022-08-01T06:33:26;3.70;;;3.40;;
64903;SDS011;51401;48.882;12.598;2022-08-01T06:35:52;3.97;;;3.58;;
64903;SDS011;51401;48.882;12.598;2022-08-01T06:38:17;4.50;;;3.67;;
64903;SDS011;51401;48.882;12.598;2022-08-01T06:40:42;3.47;;;3.17;;
64903;SDS011;51401;48.882;12.598;2022-08-01T06:43:08;4.47;;;3.88;;
64903;SDS011;51401;48.882;12.598;2022-08-01T06:45:33;5.23;;;3.77;;
64903;SDS011;51401;48.882;12.598;2022-08-01T06:47:59;4.15;;;3.40;;
64903;SDS011;51401;48.882;12.598;2022-08-01T06:50:24;4.87;;;3.00;;
64903;SDS011;51401;48.882;12.598;2022-08-01T06:52:49;3.53;;;3.23;;
64903;SDS011;51401;48.882;12.598;2022-08-01T06:55:15;3.80;;;3.47;;
64903;SDS011;51401;48.882;12.598;2022-08-01T06:57:50;3.80;;;3.47;;
64903;SDS011;51401;48.882;12.598;2022-08-01T07:00:16;4.20;;;3.13;;
64903;SDS011;51401;48.882;12.598;2022-08-01T07:02:45;4.75;;;3.47;;
64903;SDS011;51401;48.882;12.598;2022-08-01T07:05:11;6.05;;;3.63;;
64903;SDS011;51401;48.882;12.598;2022-08-01T07:07:37;3.83;;;3.08;;
64903;SDS011;51401;48.882;12.598;2022-08-01T07:10:02;5.60;;;3.50;;
64903;SDS011;51401;48.882;12.598;2022-08-01T07:12:28;3.50;;;3.20;;
64903;SDS011;51401;48.882;12.598;2022-08-01T07:14:54;3.53;;;3.22;;
64903;SDS011;51401;48.882;12.598;2022-08-01T07:17:19;3.53;;;3.23;;
64903;SDS011;51401;48.882;12.598;2022-08-01T07:19:45;4.75;;;3.28;;
64903;SDS011;51401;48.882;12.598;2022-08-01T07:22:11;3.83;;;3.25;;
64903;SDS011;51401;48.882;12.598;2022-08-01T07:24:36;3.25;;;2.92;;
64903;SDS011;51401;48.882;12.598;2022-08-01T07:27:01;3.22;;;2.92;;
64903;SDS011;51401;48.882;12.598;2022-08-01T07:29:28;3.80;;;2.90;;
64903;SDS011;51401;48.882;12.598;2022-08-01T07:31:54;3.40;;;3.10;;
64903;SDS011;51401;48.882;12.598;2022-08-01T07:34:21;3.63;;;3.10;;
64903;SDS011;51401;48.882;12.598;2022-08-01T07:36:47;3.80;;;3.50;;
64903;SDS011;51401;48.882;12.598;2022-08-01T07:39:12;3.38;;;3.08;;
64903;SDS011;51401;48.882;12.598;2022-08-01T07:41:37;3.03;;;2.80;;
64903;SDS011;51401;48.882;12.598;2022-08-01T07:44:03;2.93;;;2.70;;
64903;SDS011;51401;48.882;12.598;2022-08-01T07:46:28;3.55;;;2.78;;
64903;SDS011;51401;48.882;12.598;2022-08-01T07:48:55;2.92;;;2.65;;
64903;SDS011;51401;48.882;12.598;2022-08-01T07:51:20;3.45;;;2.75;;
64903;SDS011;51401;48.882;12.598;2022-08-01T07:53:46;3.13;;;2.83;;
64903;SDS011;51401;48.882;12.598;2022-08-01T07:56:11;4.05;;;2.63;;
64903;SDS011;51401;48.882;12.598;2022-08-01T07:58:36;3.40;;;2.50;;
64903;SDS011;51401;48.882;12.598;2022-08-01T08:01:02;3.80;;;2.80;;
64903;SDS011;51401;48.882;12.598;2022-08-01T08:03:27;2.60;;;2.40;;
64903;SDS011;51401;48.882;12.598;2022-08-01T08:05:52;2.30;;;2.10;;
64903;SDS011;51401;48.882;12.598;2022-08-01T08:08:18;2.33;;;2.03;;
64903;SDS011;51401;48.882;12.598;2022-08-01T08:10:43;2.30;;;2.08;;
64903;SDS011;51401;48.882;12.598;2022-08-01T08:13:09;4.88;;;2.00;;
64903;SDS011;51401;48.882;12.598;2022-08-01T08:15:34;2.42;;;1.92;;
64903;SDS011;51401;48.882;12.598;2022-08-01T08:18:00;3.92;;;2.13;;
64903;SDS011;51401;48.882;12.598;2022-08-01T08:20:25;2.72;;;2.53;;
64903;SDS011;51401;48.882;12.598;2022-08-01T08:22:52;2.30;;;2.10;;
64903;SDS011;51401;48.882;12.598;2022-08-01T08:25:18;3.90;;;2.20;;
64903;SDS011;51401;48.882;12.598;2022-08-01T08:27:44;3.13;;;2.28;;
64903;SDS011;51401;48.882;12.598;2022-08-01T08:30:10;4.78;;;2.30;;
64903;SDS011;51401;48.882;12.598;2022-08-01T08:32:36;2.78;;;2.20;;
64903;SDS011;51401;48.882;12.598;2022-08-01T08:35:02;2.00;;;1.83;;
64903;SDS011;51401;48.882;12.598;2022-08-01T08:37:28;2.53;;;2.10;;
64903;SDS011;51401;48.882;12.598;2022-08-01T08:39:53;2.73;;;1.93;;
64903;SDS011;51401;48.882;12.598;2022-08-01T08:42:18;4.38;;;2.28;;
64903;SDS011;51401;48.882;12.598;2022-08-01T08:44:44;4.22;;;2.22;;
64903;SDS011;51401;48.882;12.598;2022-08-01T08:47:10;3.22;;;1.90;;
64903;SDS011;51401;48.882;12.598;2022-08-01T08:49:37;2.03;;;1.83;;
64903;SDS011;51401;48.882;12.598;2022-08-01T08:52:04;3.15;;;1.92;;
64903;SDS011;51401;48.882;12.598;2022-08-01T08:54:30;2.47;;;1.80;;
64903;SDS011;51401;48.882;12.598;2022-08-01T08:56:57;1.90;;;1.77;;
64903;SDS011;51401;48.882;12.598;2022-08-01T08:59:24;3.20;;;1.73;;
64903;SDS011;51401;48.882;12.598;2022-08-01T09:01:50;2.60;;;1.90;;
64903;SDS011;51401;48.882;12.598;2022-08-01T09:04:16;2.05;;;1.70;;
64903;SDS011;51401;48.882;12.598;2022-08-01T09:06:41;2.20;;;2.00;;
64903;SDS011;51401;48.882;12.598;2022-08-01T09:09:07;1.70;;;1.60;;
64903;SDS011;51401;48.882;12.598;2022-08-01T09:11:33;2.13;;;1.77;;
64903;SDS011;51401;48.882;12.598;2022-08-01T09:16:34;3.22;;;2.22;;
64903;SDS011;51401;48.882;12.598;2022-08-01T09:19:34;2.35;;;2.15;;
64903;SDS011;51401;48.882;12.598;2022-08-01T09:21:59;2.38;;;2.10;;
64903;SDS011;51401;48.882;12.598;2022-08-01T09:24:26;2.65;;;1.90;;
64903;SDS011;51401;48.882;12.598;2022-08-01T09:26:54;2.30;;;2.08;;
64903;SDS011;51401;48.882;12.598;2022-08-01T09:29:22;2.65;;;2.17;;
64903;SDS011;51401;48.882;12.598;2022-08-01T09:31:49;3.47;;;1.90;;
64903;SDS011;51401;48.882;12.598;2022-08-01T09:34:15;3.00;;;2.15;;
64903;SDS011;51401;48.882;12.598;2022-08-01T09:36:49;2.55;;;2.13;;
64903;SDS011;51401;48.882;12.598;2022-08-01T09:39:17;2.37;;;1.87;;
64903;SDS011;51401;48.882;12.598;2022-08-01T09:41:44;2.88;;;1.73;;
64903;SDS011;51401;48.882;12.598;2022-08-01T09:44:09;2.00;;;1.77;;
64903;SDS011;51401;48.882;12.598;2022-08-01T09:46:35;2.45;;;1.83;;
64903;SDS011;51401;48.882;12.598;2022-08-01T09:49:04;1.92;;;1.50;;
64903;SDS011;51401;48.882;12.598;2022-08-01T09:54:04;2.10;;;1.80;;
64903;SDS011;51401;48.882;12.598;2022-08-01T09:56:38;2.85;;;1.80;;
64903;SDS011;51401;48.882;12.598;2022-08-01T09:59:04;2.50;;;2.28;;
64903;SDS011;51401;48.882;12.598;2022-08-01T10:01:41;2.38;;;1.90;;
64903;SDS011;51401;48.882;12.598;2022-08-01T10:09:05;2.97;;;1.92;;
64903;SDS011;51401;48.882;12.598;2022-08-01T10:11:30;2.40;;;1.70;;
64903;SDS011;51401;48.882;12.598;2022-08-01T10:13:57;2.40;;;1.88;;
64903;SDS011;51401;48.882;12.598;2022-08-01T10:16:25;3.13;;;1.77;;
64903;SDS011;51401;48.882;12.598;2022-08-01T10:18:51;2.95;;;2.10;;
64903;SDS011;51401;48.882;12.598;2022-08-01T10:21:18;2.42;;;2.03;;
64903;SDS011;51401;48.882;12.598;2022-08-01T10:23:44;1.80;;;1.52;;
64903;SDS011;51401;48.882;12.598;2022-08-01T10:26:10;2.08;;;1.50;;
64903;SDS011;51401;48.882;12.598;2022-08-01T10:28:37;1.95;;;1.50;;
64903;SDS011;51401;48.882;12.598;2022-08-01T10:31:03;1.75;;;1.50;;
64903;SDS011;51401;48.882;12.598;2022-08-01T10:33:29;2.50;;;1.50;;
64903;SDS011;51401;48.882;12.598;2022-08-01T10:35:55;1.63;;;1.30;;
64903;SDS011;51401;48.882;12.598;2022-08-01T10:38:22;2.22;;;1.33;;
64903;SDS011;51401;48.882;12.598;2022-08-01T10:40:48;2.85;;;1.30;;
64903;SDS011;51401;48.882;12.598;2022-08-01T10:43:15;2.03;;;1.50;;
64903;SDS011;51401;48.882;12.598;2022-08-01T10:45:42;2.65;;;1.60;;
64903;SDS011;51401;48.882;12.598;2022-08-01T10:50:44;1.65;;;1.45;;
64903;SDS011;51401;48.882;12.598;2022-08-01T10:58:26;2.67;;;1.73;;
64903;SDS011;51401;48.882;12.598;2022-08-01T11:03:42;1.80;;;1.20;;
64903;SDS011;51401;48.882;12.598;2022-08-01T11:06:18;1.60;;;1.50;;
64903;SDS011;51401;48.882;12.598;2022-08-01T11:08:51;2.33;;;1.40;;
64903;SDS011;51401;48.882;12.598;2022-08-01T11:11:19;1.70;;;1.30;;
64903;SDS011;51401;48.882;12.598;2022-08-01T11:16:30;1.45;;;1.30;;
64903;SDS011;51401;48.882;12.598;2022-08-01T11:18:56;1.60;;;1.33;;
64903;SDS011;51401;48.882;12.598;2022-08-01T11:21:22;2.08;;;1.27;;
64903;SDS011;51401;48.882;12.598;2022-08-01T11:24:07;4.22;;;1.52;;
64903;SDS011;51401;48.882;12.598;2022-08-01T11:26:32;1.80;;;1.40;;
64903;SDS011;51401;48.882;12.598;2022-08-01T11:29:11;1.60;;;1.50;;
64903;SDS011;51401;48.882;12.598;2022-08-01T11:31:38;2.63;;;1.70;;
64903;SDS011;51401;48.882;12.598;2022-08-01T11:34:04;2.10;;;1.20;;
64903;SDS011;51401;48.882;12.598;2022-08-01T11:36:29;3.33;;;1.33;;
64903;SDS011;51401;48.882;12.598;2022-08-01T11:41:33;2.70;;;1.50;;
64903;SDS011;51401;48.882;12.598;2022-08-01T11:44:04;2.17;;;1.33;;
64903;SDS011;51401;48.882;12.598;2022-08-01T11:52:13;2.13;;;1.40;;
64903;SDS011;51401;48.882;12.598;2022-08-01T11:54:45;1.63;;;1.40;;
64903;SDS011;51401;48.882;12.598;2022-08-01T11:57:22;5.78;;;1.50;;
64903;SDS011;51401;48.882;12.598;2022-08-01T11:59:55;2.47;;;1.30;;
64903;SDS011;51401;48.882;12.598;2022-08-01T12:02:28;1.85;;;1.42;;
64903;SDS011;51401;48.882;12.598;2022-08-01T12:07:26;1.85;;;1.35;;
64903;SDS011;51401;48.882;12.598;2022-08-01T12:09:57;1.95;;;1.50;;
64903;SDS011;51401;48.882;12.598;2022-08-01T12:12:23;1.42;;;1.33;;
64903;SDS011;51401;48.882;12.598;2022-08-01T12:14:52;1.50;;;1.20;;
64903;SDS011;51401;48.882;12.598;2022-08-01T12:17:32;3.67;;;1.83;;
64903;SDS011;51401;48.882;12.598;2022-08-01T12:20:03;2.83;;;1.40;;
64903;SDS011;51401;48.882;12.598;2022-08-01T12:22:30;1.73;;;1.42;;
64903;SDS011;51401;48.882;12.598;2022-08-01T12:24:56;2.08;;;1.30;;
64903;SDS011;51401;48.882;12.598;2022-08-01T12:27:31;2.90;;;1.63;;
64903;SDS011;51401;48.882;12.598;2022-08-01T12:29:57;3.80;;;1.70;;
64903;SDS011;51401;48.882;12.598;2022-08-01T12:34:49;3.72;;;1.42;;
64903;SDS011;51401;48.882;12.598;2022-08-01T12:37:16;1.50;;;1.30;;
64903;SDS011;51401;48.882;12.598;2022-08-01T12:39:43;1.35;;;1.25;;
64903;SDS011;51401;48.882;12.598;2022-08-01T12:42:08;1.75;;;1.27;;
64903;SDS011;51401;48.882;12.598;2022-08-01T12:44:35;2.42;;;1.10;;
64903;SDS011;51401;48.882;12.598;2022-08-01T12:47:02;2.22;;;1.40;;
64903;SDS011;51401;48.882;12.598;2022-08-01T12:49:30;1.30;;;1.20;;
64903;SDS011;51401;48.882;12.598;2022-08-01T12:51:57;1.83;;;1.08;;
64903;SDS011;51401;48.882;12.598;2022-08-01T12:54:23;2.38;;;1.27;;
64903;SDS011;51401;48.882;12.598;2022-08-01T12:56:50;2.40;;;1.10;;
64903;SDS011;51401;48.882;12.598;2022-08-01T12:59:25;3.72;;;1.10;;
64903;SDS011;51401;48.882;12.598;2022-08-01T13:01:55;1.90;;;1.23;;
64903;SDS011;51401;48.882;12.598;2022-08-01T13:04:24;1.60;;;1.07;;
64903;SDS011;51401;48.882;12.598;2022-08-01T13:06:52;2.55;;;1.08;;
64903;SDS011;51401;48.882;12.598;2022-08-01T13:11:43;1.13;;;1.03;;
64903;SDS011;51401;48.882;12.598;2022-08-01T13:14:10;1.63;;;1.15;;
64903;SDS011;51401;48.882;12.598;2022-08-01T13:16:51;2.20;;;1.50;;
64903;SDS011;51401;48.882;12.598;2022-08-01T13:19:16;1.63;;;1.33;;
64903;SDS011;51401;48.882;12.598;2022-08-01T13:21:54;2.17;;;1.30;;
64903;SDS011;51401;48.882;12.598;2022-08-01T13:24:24;2.67;;;1.17;;
64903;SDS011;51401;48.882;12.598;2022-08-01T13:26:54;2.63;;;1.10;;
64903;SDS011;51401;48.882;12.598;2022-08-01T13:31:56;2.63;;;1.15;;
64903;SDS011;51401;48.882;12.598;2022-08-01T13:34:29;2.30;;;1.30;;
64903;SDS011;51401;48.882;12.598;2022-08-01T13:36:58;3.33;;;1.20;;
64903;SDS011;51401;48.882;12.598;2022-08-01T13:39:26;1.27;;;0.98;;
64903;SDS011;51401;48.882;12.598;2022-08-01T13:42:13;1.35;;;1.25;;
64903;SDS011;51401;48.882;12.598;2022-08-01T13:44:39;1.63;;;1.20;;
64903;SDS011;51401;48.882;12.598;2022-08-01T13:47:05;1.30;;;1.08;;
64903;SDS011;51401;48.882;12.598;2022-08-01T13:49:32;2.50;;;1.00;;
64903;SDS011;51401;48.882;12.598;2022-08-01T13:51:58;2.05;;;1.17;;
64903;SDS011;51401;48.882;12.598;2022-08-01T13:54:23;2.35;;;1.35;;
64903;SDS011;51401;48.882;12.598;2022-08-01T13:56:49;3.83;;;1.30;;
64903;SDS011;51401;48.882;12.598;2022-08-01T13:59:15;2.60;;;1.35;;
64903;SDS011;51401;48.882;12.598;2022-08-01T14:01:40;3.33;;;1.30;;
64903;SDS011;51401;48.882;12.598;2022-08-01T14:04:06;1.50;;;1.10;;
64903;SDS011;51401;48.882;12.598;2022-08-01T14:06:31;2.03;;;1.20;;
64903;SDS011;51401;48.882;12.598;2022-08-01T14:08:57;3.70;;;1.27;;
64903;SDS011;51401;48.882;12.598;2022-08-01T14:11:22;1.13;;;1.02;;
64903;SDS011;51401;48.882;12.598;2022-08-01T14:13:48;3.75;;;1.10;;
64903;SDS011;51401;48.882;12.598;2022-08-01T14:16:13;1.67;;;1.08;;
64903;SDS011;51401;48.882;12.598;2022-08-01T14:18:39;2.08;;;1.35;;
64903;SDS011;51401;48.882;12.598;2022-08-01T14:21:05;1.33;;;1.10;;
64903;SDS011;51401;48.882;12.598;2022-08-01T14:23:31;1.65;;;1.27;;
64903;SDS011;51401;48.882;12.598;2022-08-01T14:25:56;2.75;;;0.95;;
64903;SDS011;51401;48.882;12.598;2022-08-01T14:28:21;1.20;;;1.00;;
64903;SDS011;51401;48.882;12.598;2022-08-01T14:30:48;1.02;;;0.93;;
64903;SDS011;51401;48.882;12.598;2022-08-01T14:33:13;1.47;;;0.93;;
64903;SDS011;51401;48.882;12.598;2022-08-01T14:35:39;2.08;;;1.00;;
64903;SDS011;51401;48.882;12.598;2022-08-01T14:38:05;1.50;;;1.00;;
64903;SDS011;51401;48.882;12.598;2022-08-01T14:40:30;1.45;;;0.93;;
64903;SDS011;51401;48.882;12.598;2022-08-01T14:42:56;1.73;;;1.00;;
64903;SDS011;51401;48.882;12.598;2022-08-01T14:45:21;1.75;;;0.95;;
64903;SDS011;51401;48.882;12.598;2022-08-01T14:47:46;2.33;;;1.17;;
64903;SDS011;51401;48.882;12.598;2022-08-01T14:50:12;1.20;;;0.90;;
64903;SDS011;51401;48.882;12.598;2022-08-01T14:52:39;2.00;;;1.10;;
64903;SDS011;51401;48.882;12.598;2022-08-01T14:55:07;1.63;;;0.90;;
64903;SDS011;51401;48.882;12.598;2022-08-01T14:57:33;1.65;;;0.82;;
64903;SDS011;51401;48.882;12.598;2022-08-01T14:59:59;1.42;;;1.10;;
64903;SDS011;51401;48.882;12.598;2022-08-01T15:02:24;1.73;;;1.10;;
64903;SDS011;51401;48.882;12.598;2022-08-01T15:04:50;3.15;;;0.95;;
64903;SDS011;51401;48.882;12.598;2022-08-01T15:07:16;1.05;;;0.88;;
64903;SDS011;51401;48.882;12.598;2022-08-01T15:09:42;1.63;;;0.80;;
64903;SDS011;51401;48.882;12.598;2022-08-01T15:12:08;1.35;;;0.90;;
64903;SDS011;51401;48.882;12.598;2022-08-01T15:14:35;1.63;;;0.90;;
64903;SDS011;51401;48.882;12.598;2022-08-01T15:17:16;1.17;;;0.80;;
64903;SDS011;51401;48.882;12.598;2022-08-01T15:19:44;1.30;;;1.00;;
64903;SDS011;51401;48.882;12.598;2022-08-01T15:22:10;1.30;;;1.00;;
64903;SDS011;51401;48.882;12.598;2022-08-01T15:24:35;1.23;;;0.80;;
64903;SDS011;51401;48.882;12.598;2022-08-01T15:27:00;1.80;;;1.00;;
64903;SDS011;51401;48.882;12.598;2022-08-01T15:29:26;2.07;;;1.10;;
64903;SDS011;51401;48.882;12.598;2022-08-01T15:31:51;1.67;;;0.93;;
64903;SDS011;51401;48.882;12.598;2022-08-01T15:34:16;0.88;;;0.80;;